createdAt,value
2016-09-29T00:00:50.044Z,79.78
2016-09-29T00:01:50.502Z,79.21
2016-09-29T00:02:50.474Z,78.82
2016-09-29T00:03:50.081Z,78.44
2016-09-29T00:04:50.247Z,79.21
2016-09-29T00:05:50.322Z,79.49
2016-09-29T00:06:50.652Z,79.68
2016-09-29T00:07:50.585Z,79.78
2016-09-29T00:08:50.526Z,79.49
2016-09-29T00:09:50.088Z,79.78
2016-09-29T00:10:50.678Z,79.68
2016-09-29T00:11:50.340Z,79.49
2016-09-29T00:12:50.411Z,79.49
2016-09-29T00:13:50.260Z,79.49
2016-09-29T00:14:50.903Z,79.59
2016-09-29T00:15:50.642Z,79.49
2016-09-29T00:16:50.613Z,79.59
2016-09-29T00:17:50.524Z,79.59
2016-09-29T00:18:50.456Z,79.59
2016-09-29T00:19:50.681Z,79.39
2016-09-29T00:20:50.383Z,79.59
2016-09-29T00:21:50.588Z,79.59
2016-09-29T00:22:50.474Z,79.59
2016-09-29T00:23:50.350Z,79.49
2016-09-29T00:24:51.844Z,79.59
2016-09-29T00:25:51.162Z,79.68
2016-09-29T00:26:50.788Z,79.49
2016-09-29T00:27:50.796Z,79.68
2016-09-29T00:28:50.995Z,79.3
2016-09-29T00:29:51.219Z,79.49
2016-09-29T00:30:50.884Z,79.88
2016-09-29T00:31:50.625Z,79.59
2016-09-29T00:32:51.035Z,79.88
2016-09-29T00:33:50.517Z,79.88
2016-09-29T00:34:51.132Z,80.55
2016-09-29T00:35:50.972Z,80.22
2016-09-29T00:36:50.971Z,80.79
2016-09-29T00:37:50.490Z,80.51
2016-09-29T00:38:50.919Z,80.79
2016-09-29T00:39:51.187Z,80.6
2016-09-29T00:40:50.789Z,80.6
2016-09-29T00:41:50.794Z,80.79
2016-09-29T00:42:51.209Z,80.41
2016-09-29T00:43:50.945Z,80.22
2016-09-29T00:44:51.663Z,80.51
2016-09-29T00:45:51.455Z,80.12
2016-09-29T00:46:51.428Z,80.07
2016-09-29T00:47:51.416Z,80.16
2016-09-29T00:48:51.082Z,79.39
2016-09-29T00:49:50.894Z,79.49
2016-09-29T00:50:52.177Z,79.49
2016-09-29T00:51:51.170Z,79.68
2016-09-29T00:52:50.977Z,79.88
2016-09-29T00:53:52.151Z,79.68
2016-09-29T00:54:51.110Z,79.3
2016-09-29T00:55:51.404Z,78.82
2016-09-29T00:56:51.329Z,79.78
2016-09-29T00:57:51.606Z,78.92
2016-09-29T00:58:50.763Z,79.01
2016-09-29T00:59:51.244Z,78.72
2016-09-29T01:00:50.946Z,78.92
2016-09-29T01:01:51.415Z,78.72
2016-09-29T01:02:51.863Z,78.53
2016-09-29T01:03:51.149Z,78.72
2016-09-29T01:04:51.554Z,78.72
2016-09-29T01:05:51.705Z,78.72
2016-09-29T01:06:51.276Z,78.92
2016-09-29T01:07:51.646Z,78.53
2016-09-29T01:08:51.950Z,78.82
2016-09-29T01:09:52.528Z,79.11
2016-09-29T01:10:52.306Z,78.53
2016-09-29T01:11:52.038Z,78.25
2016-09-29T01:12:51.519Z,79.11
2016-09-29T01:13:51.909Z,79.11
2016-09-29T01:14:51.339Z,79.59
2016-09-29T01:15:51.707Z,79.68
2016-09-29T01:16:51.831Z,78.72
2016-09-29T01:17:52.053Z,79.68
2016-09-29T01:18:51.293Z,79.49
2016-09-29T01:19:52.624Z,79.68
2016-09-29T01:20:52.247Z,79.11
2016-09-29T01:21:51.987Z,79.49
2016-09-29T01:22:52.079Z,79.39
2016-09-29T01:23:52.102Z,79.39
2016-09-29T01:24:51.807Z,78.82
2016-09-29T01:25:52.585Z,78.63
2016-09-29T01:26:51.777Z,79.59
2016-09-29T01:27:51.750Z,78.63
2016-09-29T01:28:52.617Z,78.92
2016-09-29T01:29:52.738Z,78.25
2016-09-29T01:30:51.549Z,78.82
2016-09-29T01:31:51.757Z,78.63
2016-09-29T01:32:52.813Z,79.21
2016-09-29T01:33:52.437Z,78.34
2016-09-29T01:34:52.091Z,78.44
2016-09-29T01:35:52.505Z,78.25
2016-09-29T01:36:52.604Z,78.05
2016-09-29T01:37:52.492Z,78.19
2016-09-29T01:38:52.671Z,78.77
2016-09-29T01:39:51.996Z,78.67
2016-09-29T01:40:54.027Z,77.71
2016-09-29T01:41:52.333Z,77.67
2016-09-29T01:42:52.754Z,77.58
2016-09-29T01:43:53.618Z,77.51
2016-09-29T01:44:52.141Z,77.23
2016-09-29T01:45:53.073Z,77.71
2016-09-29T01:46:52.598Z,77.23
2016-09-29T01:47:52.677Z,76.37
2016-09-29T01:48:53.122Z,76.46
2016-09-29T01:49:52.905Z,76.75
2016-09-29T01:50:53.222Z,76.37
2016-09-29T01:51:53.153Z,76.37
2016-09-29T01:52:52.481Z,76.07
2016-09-29T01:53:52.401Z,75.89
2016-09-29T01:54:52.482Z,76.37
2016-09-29T01:55:53.037Z,76.56
2016-09-29T01:56:53.163Z,76.56
2016-09-29T01:57:53.250Z,76.56
2016-09-29T01:58:52.796Z,76.84
2016-09-29T01:59:52.824Z,77.33
2016-09-29T02:00:52.961Z,77.33
2016-09-29T02:01:52.606Z,77.13
2016-09-29T02:02:52.983Z,77.61
2016-09-29T02:03:53.112Z,77.51
2016-09-29T02:04:52.954Z,77.71
2016-09-29T02:05:52.804Z,78.19
2016-09-29T02:06:53.113Z,77.9
2016-09-29T02:07:53.287Z,78
2016-09-29T02:08:53.176Z,78
2016-09-29T02:09:53.261Z,77.33
2016-09-29T02:10:52.996Z,77.42
2016-09-29T02:11:52.955Z,77.61
2016-09-29T02:12:53.207Z,77.51
2016-09-29T02:13:52.729Z,77.33
2016-09-29T02:14:54.105Z,77.04
2016-09-29T02:15:53.896Z,77.42
2016-09-29T02:16:54.045Z,76.84
2016-09-29T02:17:53.162Z,77.8
2016-09-29T02:18:53.381Z,77.61
2016-09-29T02:19:53.762Z,78.19
2016-09-29T02:20:53.944Z,78.67
2016-09-29T02:21:53.382Z,78.47
2016-09-29T02:22:53.476Z,78.28
2016-09-29T02:23:54.006Z,78.38
2016-09-29T02:24:52.847Z,78.09
2016-09-29T02:25:53.280Z,78.72
2016-09-29T02:26:52.959Z,78.44
2016-09-29T02:27:54.077Z,78.92
2016-09-29T02:28:53.442Z,78.86
2016-09-29T02:29:52.999Z,78.34
2016-09-29T02:30:53.667Z,78.44
2016-09-29T02:31:53.579Z,78.57
2016-09-29T02:32:54.076Z,78.96
2016-09-29T02:33:53.285Z,78.72
2016-09-29T02:34:53.226Z,78.63
2016-09-29T02:35:53.735Z,78.72
2016-09-29T02:36:53.184Z,79.68
2016-09-29T02:37:53.365Z,79.49
2016-09-29T02:38:53.018Z,78.92
2016-09-29T02:39:53.185Z,79.11
2016-09-29T02:40:53.432Z,79.21
2016-09-29T02:41:53.269Z,78.53
2016-09-29T02:42:53.830Z,79.59
2016-09-29T02:43:53.380Z,79.49
2016-09-29T02:44:53.981Z,79.68
2016-09-29T02:45:53.333Z,79.49
2016-09-29T02:46:53.313Z,79.88
2016-09-29T02:47:53.893Z,79.88
2016-09-29T02:48:53.925Z,79.88
2016-09-29T02:49:54.061Z,79.68
2016-09-29T02:50:53.399Z,79.78
2016-09-29T02:51:53.624Z,79.88
2016-09-29T02:52:53.827Z,80.16
2016-09-29T02:53:54.705Z,80.45
2016-09-29T02:54:54.375Z,80.55
2016-09-29T02:55:54.477Z,79.88
2016-09-29T02:56:53.671Z,80.26
2016-09-29T02:57:53.710Z,79.97
2016-09-29T02:58:54.339Z,79.97
2016-09-29T02:59:54.221Z,79.88
2016-09-29T03:00:54.215Z,80.45
2016-09-29T03:01:54.373Z,80.55
2016-09-29T03:02:53.993Z,80.26
2016-09-29T03:03:54.044Z,80.16
2016-09-29T03:04:53.764Z,80.35
2016-09-29T03:05:54.361Z,80.07
2016-09-29T03:06:54.003Z,80.45
2016-09-29T03:07:54.046Z,79.88
2016-09-29T03:08:54.199Z,80.64
2016-09-29T03:09:54.222Z,80.07
2016-09-29T03:10:54.690Z,79.78
2016-09-29T03:11:54.658Z,79.78
2016-09-29T03:12:55.410Z,79.49
2016-09-29T03:13:54.794Z,78.82
2016-09-29T03:14:54.205Z,79.68
2016-09-29T03:15:54.192Z,79.11
2016-09-29T03:16:54.444Z,78.77
2016-09-29T03:17:54.280Z,78.86
2016-09-29T03:18:53.881Z,78.86
2016-09-29T03:19:54.685Z,79.01
2016-09-29T03:20:54.156Z,78.77
2016-09-29T03:21:54.082Z,79.01
2016-09-29T03:22:54.745Z,78.63
2016-09-29T03:23:54.410Z,78.77
2016-09-29T03:24:54.237Z,79.72
2016-09-29T03:25:54.388Z,79.39
2016-09-29T03:26:55.777Z,79.49
2016-09-29T03:27:54.479Z,79.88
2016-09-29T03:28:56.027Z,80.07
2016-09-29T03:29:55.586Z,80.16
2016-09-29T03:30:55.243Z,80.07
2016-09-29T03:31:54.821Z,80.35
2016-09-29T03:32:54.212Z,80.35
2016-09-29T03:33:54.933Z,81.22
2016-09-29T03:34:55.339Z,80.7
2016-09-29T03:35:55.688Z,80.6
2016-09-29T03:36:54.774Z,80.89
2016-09-29T03:37:56.031Z,81.08
2016-09-29T03:38:55.978Z,81.18
2016-09-29T03:39:55.379Z,81.18
2016-09-29T03:40:55.620Z,81.08
2016-09-29T03:41:54.568Z,81.18
2016-09-29T03:42:54.580Z,81.75
2016-09-29T03:43:54.433Z,81.37
2016-09-29T03:44:55.094Z,81.95
2016-09-29T03:45:54.867Z,81.75
2016-09-29T03:46:54.800Z,82.23
2016-09-29T03:47:54.846Z,82.81
2016-09-29T03:48:55.832Z,81.81
2016-09-29T03:49:55.858Z,82.19
2016-09-29T03:50:55.154Z,82.76
2016-09-29T03:51:54.825Z,82.76
2016-09-29T03:52:54.867Z,82.19
2016-09-29T03:53:54.959Z,82.09
2016-09-29T03:54:54.960Z,82.29
2016-09-29T03:55:55.699Z,82.86
2016-09-29T03:56:55.823Z,82.57
2016-09-29T03:57:56.581Z,82.96
2016-09-29T03:58:55.282Z,83.25
2016-09-29T03:59:55.617Z,82.76
2016-09-29T04:00:56.188Z,83.25
2016-09-29T04:01:55.773Z,82.96
2016-09-29T04:02:56.205Z,83.05
2016-09-29T04:03:54.817Z,82.09
2016-09-29T04:04:55.793Z,82.19
2016-09-29T04:05:55.506Z,82.09
2016-09-29T04:06:56.306Z,82.57
2016-09-29T04:07:55.363Z,82.48
2016-09-29T04:08:55.642Z,82
2016-09-29T04:09:55.639Z,82
2016-09-29T04:10:55.383Z,82.48
2016-09-29T04:11:55.369Z,82.19
2016-09-29T04:12:55.542Z,81.52
2016-09-29T04:13:55.226Z,81.04
2016-09-29T04:14:55.708Z,81.52
2016-09-29T04:15:55.601Z,81.52
2016-09-29T04:16:55.589Z,81.13
2016-09-29T04:17:56.105Z,81.43
2016-09-29T04:18:55.369Z,81.62
2016-09-29T04:19:56.227Z,82.09
2016-09-29T04:20:55.769Z,82.19
2016-09-29T04:21:55.527Z,82.09
2016-09-29T04:22:56.048Z,82.38
2016-09-29T04:23:55.827Z,82.29
2016-09-29T04:24:56.981Z,82.86
2016-09-29T04:25:56.024Z,82.96
2016-09-29T04:26:55.850Z,83.25
2016-09-29T04:27:57.209Z,83.44
2016-09-29T04:28:56.136Z,83.44
2016-09-29T04:29:55.800Z,83.44
2016-09-29T04:30:56.109Z,83.53
2016-09-29T04:31:55.657Z,83.05
2016-09-29T04:32:55.976Z,83.49
2016-09-29T04:33:56.305Z,83.78
2016-09-29T04:34:55.604Z,83.97
2016-09-29T04:35:57.114Z,84.06
2016-09-29T04:36:55.733Z,84.06
2016-09-29T04:37:56.481Z,84.06
2016-09-29T04:38:56.070Z,84.16
2016-09-29T04:39:56.760Z,84.64
2016-09-29T04:40:55.326Z,84.35
2016-09-29T04:41:55.397Z,84.83
2016-09-29T04:42:56.663Z,84.74
2016-09-29T04:43:56.472Z,84.92
2016-09-29T04:44:56.250Z,84.64
2016-09-29T04:45:57.055Z,84.64
2016-09-29T04:46:56.344Z,85.12
2016-09-29T04:47:56.182Z,85.12
2016-09-29T04:48:56.159Z,85.41
2016-09-29T04:49:55.775Z,85.21
2016-09-29T04:50:57.330Z,85.12
2016-09-29T04:51:55.953Z,84.64
2016-09-29T04:52:56.345Z,84.55
2016-09-29T04:53:56.630Z,84.74
2016-09-29T04:54:55.917Z,84.74
2016-09-29T04:55:56.200Z,84.55
2016-09-29T04:56:56.242Z,84.64
2016-09-29T04:57:56.639Z,85.02
2016-09-29T04:58:56.245Z,85.31
2016-09-29T04:59:56.149Z,85.5
2016-09-29T05:00:56.232Z,85.17
2016-09-29T05:01:56.398Z,85.08
2016-09-29T05:02:56.405Z,85.08
2016-09-29T05:03:57.030Z,85.36
2016-09-29T05:04:57.037Z,85.55
2016-09-29T05:05:56.598Z,85.46
2016-09-29T05:06:56.975Z,85.36
2016-09-29T05:07:56.808Z,85.27
2016-09-29T05:08:56.599Z,85.55
2016-09-29T05:09:56.537Z,85.55
2016-09-29T05:10:56.936Z,85.75
2016-09-29T05:11:56.757Z,85.84
2016-09-29T05:12:56.317Z,85.94
2016-09-29T05:13:56.831Z,85.75
2016-09-29T05:14:56.509Z,85.94
2016-09-29T05:15:57.172Z,85.55
2016-09-29T05:16:57.903Z,85.84
2016-09-29T05:17:57.101Z,85.36
2016-09-29T05:18:56.724Z,85.17
2016-09-29T05:19:56.700Z,84.98
2016-09-29T05:20:57.243Z,84.98
2016-09-29T05:21:57.571Z,85.65
2016-09-29T05:22:57.205Z,85.84
2016-09-29T05:23:58.005Z,85.75
2016-09-29T05:24:56.887Z,85.65
2016-09-29T05:25:57.021Z,85.84
2016-09-29T05:26:56.834Z,86.22
2016-09-29T05:27:57.390Z,86.22
2016-09-29T05:28:57.436Z,85.94
2016-09-29T05:29:57.351Z,85.94
2016-09-29T05:30:57.156Z,86.04
2016-09-29T05:31:57.607Z,85.84
2016-09-29T05:32:57.180Z,86.32
2016-09-29T05:33:56.918Z,85.94
2016-09-29T05:34:57.125Z,86.32
2016-09-29T05:35:58.233Z,85.94
2016-09-29T05:36:56.896Z,86.51
2016-09-29T05:37:57.323Z,86.61
2016-09-29T05:38:57.998Z,86.41
2016-09-29T05:39:57.502Z,86.51
2016-09-29T05:40:57.073Z,86.32
2016-09-29T05:41:57.681Z,86.61
2016-09-29T05:42:57.028Z,86.61
2016-09-29T05:43:56.999Z,86.61
2016-09-29T05:44:57.425Z,86.51
2016-09-29T05:45:57.750Z,86.61
2016-09-29T05:46:58.436Z,85.94
2016-09-29T05:47:58.215Z,85.84
2016-09-29T05:48:57.791Z,86.04
2016-09-29T05:49:58.312Z,86.7
2016-09-29T05:50:58.416Z,86.61
2016-09-29T05:51:57.911Z,86.51
2016-09-29T05:52:58.082Z,86.51
2016-09-29T05:53:57.683Z,86.61
2016-09-29T05:54:57.764Z,85.84
2016-09-29T05:55:57.528Z,85.88
2016-09-29T05:56:57.723Z,86.74
2016-09-29T05:57:57.830Z,86.65
2016-09-29T05:58:57.081Z,86.46
2016-09-29T05:59:58.080Z,86.74
2016-09-29T06:00:58.646Z,86.65
2016-09-29T06:01:57.302Z,86.65
2016-09-29T06:02:58.022Z,85.98
2016-09-29T06:03:58.114Z,86.74
2016-09-29T06:04:58.168Z,85.98
2016-09-29T06:05:58.009Z,85.88
2016-09-29T06:06:58.165Z,86.74
2016-09-29T06:07:57.979Z,86.65
2016-09-29T06:08:58.022Z,86.74
2016-09-29T06:09:58.706Z,86.65
2016-09-29T06:10:58.750Z,86.84
2016-09-29T06:11:58.108Z,86.65
2016-09-29T06:12:57.878Z,85.98
2016-09-29T06:13:58.073Z,86.17
2016-09-29T06:14:58.909Z,85.79
2016-09-29T06:15:57.958Z,85.98
2016-09-29T06:16:58.599Z,86.17
2016-09-29T06:17:58.517Z,86.17
2016-09-29T06:18:58.397Z,86.46
2016-09-29T06:19:58.188Z,85.88
2016-09-29T06:20:58.588Z,86.74
2016-09-29T06:21:58.090Z,86.74
2016-09-29T06:22:58.220Z,86.74
2016-09-29T06:23:58.322Z,85.98
2016-09-29T06:24:58.507Z,86.17
2016-09-29T06:25:57.982Z,85.79
2016-09-29T06:26:58.586Z,86.74
2016-09-29T06:27:58.607Z,85.88
2016-09-29T06:28:58.421Z,86.65
2016-09-29T06:29:58.301Z,86.46
2016-09-29T06:30:59.151Z,86.55
2016-09-29T06:31:58.468Z,86.65
2016-09-29T06:32:58.269Z,86.74
2016-09-29T06:33:58.689Z,86.65
2016-09-29T06:34:58.153Z,86.74
2016-09-29T06:35:58.674Z,86.94
2016-09-29T06:36:58.196Z,86.84
2016-09-29T06:37:58.266Z,87.03
2016-09-29T06:38:58.182Z,87.23
2016-09-29T06:39:58.677Z,87.41
2016-09-29T06:41:00.008Z,87.41
2016-09-29T06:41:58.349Z,87.03
2016-09-29T06:42:58.632Z,87.13
2016-09-29T06:43:59.204Z,87.8
2016-09-29T06:44:58.750Z,87.7
2016-09-29T06:45:59.235Z,87.13
2016-09-29T06:46:58.317Z,87.23
2016-09-29T06:47:59.129Z,87.61
2016-09-29T06:48:58.852Z,87.32
2016-09-29T06:49:59.568Z,87.61
2016-09-29T06:50:58.875Z,87.41
2016-09-29T06:51:58.709Z,87.41
2016-09-29T06:52:58.881Z,87.32
2016-09-29T06:53:59.517Z,87.32
2016-09-29T06:54:58.705Z,87.03
2016-09-29T06:55:58.882Z,87.23
2016-09-29T06:56:58.971Z,87.03
2016-09-29T06:57:58.796Z,86.55
2016-09-29T06:58:59.582Z,85.88
2016-09-29T06:59:59.141Z,86.27
2016-09-29T07:00:59.155Z,85.98
2016-09-29T07:01:59.058Z,85.16
2016-09-29T07:02:59.318Z,84.78
2016-09-29T07:03:58.606Z,84.39
2016-09-29T07:04:59.164Z,84.97
2016-09-29T07:06:00.382Z,84.58
2016-09-29T07:06:59.486Z,84.2
2016-09-29T07:07:59.073Z,84.88
2016-09-29T07:08:59.503Z,84.88
2016-09-29T07:09:59.104Z,84.97
2016-09-29T07:10:59.270Z,84.39
2016-09-29T07:11:59.550Z,84.39
2016-09-29T07:12:59.071Z,84.01
2016-09-29T07:13:59.487Z,83.86
2016-09-29T07:14:59.129Z,83.09
2016-09-29T07:15:59.440Z,82.9
2016-09-29T07:16:59.437Z,82.32
2016-09-29T07:17:59.959Z,82.27
2016-09-29T07:18:59.559Z,81.22
2016-09-29T07:19:59.026Z,81.41
2016-09-29T07:21:00.074Z,81.12
2016-09-29T07:21:59.043Z,80.83
2016-09-29T07:22:59.323Z,81.79
2016-09-29T07:23:59.475Z,81.22
2016-09-29T07:24:59.601Z,81.31
2016-09-29T07:26:00.646Z,81.31
2016-09-29T07:26:59.950Z,80.93
2016-09-29T07:27:59.704Z,81.22
2016-09-29T07:28:59.896Z,81.64
2016-09-29T07:29:59.888Z,80.64
2016-09-29T07:30:59.675Z,81.26
2016-09-29T07:32:00.024Z,81.45
2016-09-29T07:32:59.755Z,81.12
2016-09-29T07:34:00.774Z,80.93
2016-09-29T07:34:59.869Z,80.16
2016-09-29T07:36:00.058Z,80.11
2016-09-29T07:36:59.809Z,79.91
2016-09-29T07:37:59.794Z,80.11
2016-09-29T07:38:59.673Z,80.4
2016-09-29T07:39:59.968Z,80.87
2016-09-29T07:40:59.795Z,80.87
2016-09-29T07:41:59.925Z,80.11
2016-09-29T07:42:59.541Z,80.49
2016-09-29T07:43:59.595Z,81.16
2016-09-29T07:45:00.569Z,81.02
2016-09-29T07:45:59.863Z,80.93
2016-09-29T07:47:00.362Z,80.78
2016-09-29T07:48:00.346Z,81.7
2016-09-29T07:48:59.958Z,81.45
2016-09-29T07:49:59.725Z,81.89
2016-09-29T07:50:59.669Z,81.16
2016-09-29T07:52:00.024Z,81.26
2016-09-29T07:53:00.315Z,81.26
2016-09-29T07:54:01.039Z,81.16
2016-09-29T07:55:00.675Z,81.22
2016-09-29T07:56:00.456Z,81.31
2016-09-29T07:57:00.438Z,81.41
2016-09-29T07:58:00.588Z,81.51
2016-09-29T07:59:00.321Z,81.7
2016-09-29T08:00:00.764Z,82.18
2016-09-29T08:01:00.775Z,82.08
2016-09-29T08:02:00.563Z,82.08
2016-09-29T08:03:00.679Z,82.18
2016-09-29T08:04:01.040Z,82.18
2016-09-29T08:05:01.047Z,82.08
2016-09-29T08:06:00.429Z,82.37
2016-09-29T08:07:00.584Z,81.31
2016-09-29T08:08:00.467Z,81.7
2016-09-29T08:09:00.823Z,81.16
2016-09-29T08:10:01.262Z,81.45
2016-09-29T08:11:00.449Z,81.26
2016-09-29T08:12:01.101Z,81.35
2016-09-29T08:13:00.393Z,81.45
2016-09-29T08:14:00.543Z,81.35
2016-09-29T08:15:00.455Z,81.45
2016-09-29T08:16:00.842Z,81.6
2016-09-29T08:17:00.464Z,81.26
2016-09-29T08:18:00.523Z,81.54
2016-09-29T08:19:00.964Z,80.97
2016-09-29T08:20:01.077Z,80.87
2016-09-29T08:21:00.635Z,80.78
2016-09-29T08:22:01.422Z,80.58
2016-09-29T08:23:01.262Z,80.87
2016-09-29T08:24:01.200Z,81.07
2016-09-29T08:25:01.280Z,81.26
2016-09-29T08:26:00.565Z,81.26
2016-09-29T08:27:01.015Z,81.26
2016-09-29T08:28:00.831Z,81.54
2016-09-29T08:29:01.130Z,81.26
2016-09-29T08:30:01.343Z,81.54
2016-09-29T08:31:00.615Z,81.26
2016-09-29T08:32:01.248Z,81.16
2016-09-29T08:33:01.390Z,81.45
2016-09-29T08:34:00.770Z,81.07
2016-09-29T08:35:00.989Z,81.84
2016-09-29T08:36:01.755Z,81.07
2016-09-29T08:37:00.971Z,80.3
2016-09-29T08:38:01.143Z,80.3
2016-09-29T08:39:01.911Z,79.53
2016-09-29T08:40:01.227Z,78.9
2016-09-29T08:41:01.284Z,78.7
2016-09-29T08:42:01.283Z,77.5
2016-09-29T08:43:02.183Z,76.96
2016-09-29T08:44:01.750Z,76.57
2016-09-29T08:45:01.688Z,77.34
2016-09-29T08:46:02.101Z,76.96
2016-09-29T08:47:01.701Z,77.34
2016-09-29T08:48:01.656Z,77.73
2016-09-29T08:49:01.641Z,77.31
2016-09-29T08:50:01.971Z,77.15
2016-09-29T08:51:01.543Z,77.31
2016-09-29T08:52:02.248Z,76.57
2016-09-29T08:53:02.275Z,76.48
2016-09-29T08:54:01.247Z,76.14
2016-09-29T08:55:01.601Z,74.98
2016-09-29T08:56:01.760Z,75.07
2016-09-29T08:57:01.390Z,75.27
2016-09-29T08:58:01.786Z,74.82
2016-09-29T08:59:02.140Z,74.54
2016-09-29T09:00:02.207Z,74.05
2016-09-29T09:01:02.354Z,74.5
2016-09-29T09:02:01.646Z,74.6
2016-09-29T09:03:01.559Z,74.88
2016-09-29T09:04:01.921Z,75.27
2016-09-29T09:05:02.528Z,75.46
2016-09-29T09:06:02.140Z,74.69
2016-09-29T09:07:02.279Z,75.07
2016-09-29T09:08:01.671Z,75.07
2016-09-29T09:09:02.092Z,73.63
2016-09-29T09:10:01.767Z,73.73
2016-09-29T09:11:01.638Z,73.86
2016-09-29T09:12:02.064Z,72.52
2016-09-29T09:13:02.058Z,70.98
2016-09-29T09:14:02.365Z,72.74
2016-09-29T09:15:01.829Z,71.59
2016-09-29T09:16:02.189Z,69.57
2016-09-29T09:17:02.118Z,69.31
2016-09-29T09:18:02.428Z,69.41
2016-09-29T09:19:02.168Z,69.99
2016-09-29T09:20:01.935Z,68.58
2016-09-29T09:21:02.066Z,68.38
2016-09-29T09:22:02.398Z,67.49
2016-09-29T09:23:02.375Z,66.52
2016-09-29T09:24:02.358Z,65.69
2016-09-29T09:25:02.951Z,65.72
2016-09-29T09:26:02.255Z,64.11
2016-09-29T09:27:02.445Z,61.9
2016-09-29T09:28:02.823Z,61.64
2016-09-29T09:29:02.751Z,60.68
2016-09-29T09:30:03.481Z,60.99
2016-09-29T09:31:02.257Z,59
2016-09-29T09:32:03.104Z,56.25
2016-09-29T09:33:02.837Z,55.38
2016-09-29T09:34:03.591Z,55.67
2016-09-29T09:35:02.312Z,55.96
2016-09-29T09:36:02.357Z,56.03
2016-09-29T09:37:03.567Z,56.22
2016-09-29T09:38:02.837Z,56.61
2016-09-29T09:39:02.279Z,57.67
2016-09-29T09:40:02.853Z,56.9
2016-09-29T09:41:03.511Z,58.22
2016-09-29T09:42:02.857Z,59.25
2016-09-29T09:43:02.530Z,58.48
2016-09-29T09:44:02.482Z,58.19
2016-09-29T09:45:02.489Z,56.87
2016-09-29T09:46:02.871Z,56.51
2016-09-29T09:47:02.753Z,55.71
2016-09-29T09:48:03.589Z,56.32
2016-09-29T09:49:02.962Z,55.83
2016-09-29T09:50:03.494Z,55.35
2016-09-29T09:51:03.179Z,54.61
2016-09-29T09:52:03.244Z,53.96
2016-09-29T09:53:03.454Z,54.32
2016-09-29T09:54:03.128Z,55.45
2016-09-29T09:55:03.586Z,55.07
2016-09-29T09:56:03.678Z,55.74
2016-09-29T09:57:03.531Z,55.26
2016-09-29T09:58:03.249Z,55.45
2016-09-29T09:59:03.330Z,53.96
2016-09-29T10:00:03.722Z,53.96
2016-09-29T10:01:03.311Z,53.02
2016-09-29T10:02:03.235Z,52.89
2016-09-29T10:03:03.615Z,53.93
2016-09-29T10:04:03.523Z,53.61
2016-09-29T10:05:03.288Z,53.06
2016-09-29T10:06:03.335Z,52.61
2016-09-29T10:07:03.071Z,51.93
2016-09-29T10:08:03.451Z,52.61
2016-09-29T10:09:03.551Z,52.58
2016-09-29T10:10:04.016Z,52.19
2016-09-29T10:11:04.529Z,52.22
2016-09-29T10:12:03.746Z,51.08
2016-09-29T10:13:03.802Z,50.5
2016-09-29T10:14:03.609Z,50.98
2016-09-29T10:15:04.335Z,50.31
2016-09-29T10:16:03.667Z,50.6
2016-09-29T10:17:04.763Z,50.76
2016-09-29T10:18:03.510Z,50.76
2016-09-29T10:19:03.417Z,50.96
2016-09-29T10:20:04.173Z,51.71
2016-09-29T10:21:03.755Z,52.36
2016-09-29T10:22:03.641Z,52.09
2016-09-29T10:23:04.871Z,51.61
2016-09-29T10:24:04.229Z,50.86
2016-09-29T10:25:04.553Z,50.6
2016-09-29T10:26:03.986Z,50.57
2016-09-29T10:27:04.056Z,51.35
2016-09-29T10:28:03.934Z,50.48
2016-09-29T10:29:04.138Z,50.76
2016-09-29T10:30:04.521Z,49.99
2016-09-29T10:31:04.359Z,49.8
2016-09-29T10:32:04.358Z,50.12
2016-09-29T10:33:04.067Z,49.44
2016-09-29T10:34:03.727Z,49.05
2016-09-29T10:35:04.395Z,49.24
2016-09-29T10:36:03.993Z,49.9
2016-09-29T10:37:05.461Z,50.09
2016-09-29T10:38:04.259Z,49.24
2016-09-29T10:39:04.706Z,49.15
2016-09-29T10:40:05.526Z,49.17
2016-09-29T10:41:04.533Z,48.97
2016-09-29T10:42:04.730Z,48.97
2016-09-29T10:43:05.045Z,49.44
2016-09-29T10:44:04.490Z,49.07
2016-09-29T10:45:04.412Z,48.79
2016-09-29T10:46:04.424Z,48.88
2016-09-29T10:47:04.230Z,49.82
2016-09-29T10:48:05.186Z,50.79
2016-09-29T10:49:05.951Z,50.4
2016-09-29T10:50:05.033Z,50.31
2016-09-29T10:51:04.937Z,49.07
2016-09-29T10:52:05.013Z,50.24
2016-09-29T10:53:04.679Z,49.17
2016-09-29T10:54:05.020Z,49.44
2016-09-29T10:55:04.771Z,49.34
2016-09-29T10:56:04.541Z,49.17
2016-09-29T10:57:04.817Z,48.97
2016-09-29T10:58:04.842Z,47.74
2016-09-29T10:59:04.934Z,47.28
2016-09-29T11:00:05.899Z,47.09
2016-09-29T11:01:05.888Z,48.22
2016-09-29T11:02:05.100Z,48.13
2016-09-29T11:03:05.075Z,47.74
2016-09-29T11:04:05.225Z,48.35
2016-09-29T11:05:05.113Z,47.96
2016-09-29T11:06:06.038Z,49.12
2016-09-29T11:07:04.937Z,49.37
2016-09-29T11:08:05.850Z,50.21
2016-09-29T11:09:05.073Z,50.38
2016-09-29T11:10:06.068Z,50.48
2016-09-29T11:11:05.798Z,50.67
2016-09-29T11:12:06.395Z,50.31
2016-09-29T11:13:05.660Z,50.12
2016-09-29T11:14:05.502Z,50.21
2016-09-29T11:15:06.508Z,49.73
2016-09-29T11:16:06.316Z,48.01
2016-09-29T11:17:05.520Z,48.32
2016-09-29T11:18:06.881Z,48.42
2016-09-29T11:19:05.267Z,49.17
2016-09-29T11:20:05.451Z,48.69
2016-09-29T11:21:06.278Z,49.1
2016-09-29T11:22:05.679Z,48.88
2016-09-29T11:23:06.229Z,48.97
2016-09-29T11:24:05.634Z,47.84
2016-09-29T11:25:05.852Z,46.53
2016-09-29T11:26:05.674Z,46.24
2016-09-29T11:27:06.951Z,45.47
2016-09-29T11:28:05.981Z,44.78
2016-09-29T11:29:06.197Z,44.42
2016-09-29T11:30:06.137Z,44.44
2016-09-29T11:31:05.681Z,44.64
2016-09-29T11:32:06.367Z,45.2
2016-09-29T11:33:06.618Z,45.95
2016-09-29T11:34:06.374Z,46.41
2016-09-29T11:35:06.634Z,46.04
2016-09-29T11:36:06.701Z,45.17
2016-09-29T11:37:06.701Z,45.56
2016-09-29T11:38:06.646Z,46.07
2016-09-29T11:39:06.689Z,46.02
2016-09-29T11:40:07.023Z,45.58
2016-09-29T11:41:06.278Z,44.68
2016-09-29T11:42:06.193Z,45
2016-09-29T11:43:06.346Z,45.2
2016-09-29T11:44:06.605Z,44.54
2016-09-29T11:45:06.159Z,44.13
2016-09-29T11:46:06.972Z,44.46
2016-09-29T11:47:06.325Z,44.13
2016-09-29T11:48:06.117Z,43.16
2016-09-29T11:49:07.079Z,43.27
2016-09-29T11:50:07.167Z,43.26
2016-09-29T11:51:06.389Z,43.47
2016-09-29T11:52:06.480Z,43.27
2016-09-29T11:53:06.374Z,43.3
2016-09-29T11:54:07.933Z,41.38
2016-09-29T11:55:06.316Z,41.77
2016-09-29T11:56:06.270Z,41.49
2016-09-29T11:57:07.068Z,43.32
2016-09-29T11:58:07.363Z,43.27
2016-09-29T11:59:06.844Z,43.06
2016-09-29T12:00:06.556Z,42.6
2016-09-29T12:01:06.830Z,41.94
2016-09-29T12:02:08.455Z,41.55
2016-09-29T12:03:07.446Z,43.1
2016-09-29T12:04:06.942Z,42.61
2016-09-29T12:05:07.182Z,43.57
2016-09-29T12:06:06.879Z,43.45
2016-09-29T12:07:07.106Z,42.99
2016-09-29T12:08:07.925Z,43.18
2016-09-29T12:09:07.047Z,43.27
2016-09-29T12:10:06.942Z,43.64
2016-09-29T12:11:08.012Z,43.93
2016-09-29T12:12:07.539Z,43.26
2016-09-29T12:13:08.852Z,43.35
2016-09-29T12:14:07.442Z,42.99
2016-09-29T12:15:07.129Z,42.6
2016-09-29T12:16:07.767Z,42.71
2016-09-29T12:17:08.102Z,42.33
2016-09-29T12:18:07.283Z,42.33
2016-09-29T12:19:07.246Z,41.77
2016-09-29T12:20:07.820Z,40.03
2016-09-29T12:21:07.551Z,39.96
2016-09-29T12:22:07.629Z,40.33
2016-09-29T12:23:07.568Z,41.77
2016-09-29T12:24:08.117Z,41.64
2016-09-29T12:25:07.623Z,41.28
2016-09-29T12:26:07.841Z,42.74
2016-09-29T12:27:07.702Z,43.08
2016-09-29T12:28:07.864Z,43.74
2016-09-29T12:29:07.718Z,44.49
2016-09-29T12:30:09.563Z,43.64
2016-09-29T12:31:08.956Z,43.27
2016-09-29T12:32:07.927Z,44.05
2016-09-29T12:33:07.683Z,43.37
2016-09-29T12:34:08.734Z,43.18
2016-09-29T12:35:08.962Z,43.18
2016-09-29T12:36:07.979Z,42.91
2016-09-29T12:37:08.019Z,44.54
2016-09-29T12:38:08.053Z,44.42
2016-09-29T12:39:08.032Z,44.15
2016-09-29T12:40:07.953Z,44.24
2016-09-29T12:41:08.521Z,44.44
2016-09-29T12:42:08.636Z,44.13
2016-09-29T12:43:08.460Z,43.86
2016-09-29T12:44:08.745Z,45.21
2016-09-29T12:45:07.884Z,45.78
2016-09-29T12:46:08.933Z,46.84
2016-09-29T12:47:09.340Z,47.5
2016-09-29T12:48:08.386Z,48.83
2016-09-29T12:49:08.509Z,49.49
2016-09-29T12:50:09.420Z,49.29
2016-09-29T12:51:08.614Z,50.16
2016-09-29T12:52:08.812Z,49.75
2016-09-29T12:53:08.717Z,49.95
2016-09-29T12:54:08.923Z,50.04
2016-09-29T12:55:08.489Z,50.07